Aviation Digital Data Service (ADDS)

Output produced by METARs form (0802 UTC 18 April 2014)
found at http://www.aviationweather.gov/adds/metars/
 
KCRQ 180753Z AUTO 00000KT 8SM OVC018 15/12 A2990 RMK AO2 SLP124 T01500117 401830144 TSNO
KCRQ 180704Z AUTO 00000KT 8SM OVC016 15/12 A2992 RMK AO2 TSNO
KCRQ 180653Z AUTO 00000KT 8SM OVC014 15/12 A2991 RMK AO2 SLP126 T01500117 TSNO
KCRQ 180648Z AUTO 00000KT 8SM OVC014 15/12 A2991 RMK AO2 TSNO
KCRQ 180640Z AUTO 00000KT 7SM OVC016 15/12 A2990 RMK AO2 TSNO
KCRQ 180553Z AUTO VRB04KT 9SM OVC014 16/11 A2992 RMK AO2 SLP129 T01560111 10161 20150 50012 TSNO
KCRQ 180453Z 22006KT 10SM OVC014 16/11 A2992 RMK AO2 SLP131 T01560111
KCRQ 180411Z 21005KT 10SM OVC014 16/12 A2992 RMK AO2
KCRQ 180520Z 1806/1906 19007KT P6SM OVC014 
     FM181900 21010KT P6SM BKN020 
     FM190200 23006KT P6SM BKN025